Time;durP1;ratioP1;P1;durP2;ratioP2;P2;SDS_P1;SDS_P2;PMS_P1;PMS_P2;Temp;Humidity;BMP_temperature;BMP_pressure;BME280_temperature;BME280_humidity;BME280_pressure;Samples;Min_cycle;Max_cycle;Signal;HPM_P1;HPM_P2
2022/06/13 00:00:26;;;;;;;;;2.00;2.00;;;;;23.61;42.74;101731.34;5064399;27;64246;-50
2022/06/13 00:02:52;;;;;;;;;3.00;1.00;;;;;23.59;42.63;101730.59;5080209;27;45421;-51
2022/06/13 00:05:17;;;;;;;;;2.75;2.00;;;;;23.56;42.59;101720.09;5066423;27;45394;-50
2022/06/13 00:07:43;;;;;;;;;0.50;0.00;;;;;23.59;43.13;101729.75;5073475;28;46117;-50
2022/06/13 00:10:11;;;;;;;;;1.50;1.50;;;;;23.56;42.89;101730.78;5069544;28;45441;-52
2022/06/13 00:12:37;;;;;;;;;1.25;1.25;;;;;23.56;43.02;101736.13;5057651;28;45233;-52
2022/06/13 00:15:03;;;;;;;;;2.50;1.50;;;;;23.54;42.60;101742.56;5068880;28;45200;-50
2022/06/13 00:17:28;;;;;;;;;2.00;2.00;;;;;23.52;42.92;101745.31;5063824;28;45289;-50
2022/06/13 00:19:53;;;;;;;;;1.25;1.00;;;;;23.52;42.46;101742.66;5063751;28;68238;-50
2022/06/13 00:22:19;;;;;;;;;1.00;1.00;;;;;23.50;43.06;101737.41;5080326;28;45355;-53
2022/06/13 00:24:45;;;;;;;;;1.75;1.75;;;;;23.50;43.05;101731.22;5075939;27;68142;-51
2022/06/13 00:27:10;;;;;;;;;4.25;2.25;;;;;23.50;42.83;101725.88;5069003;28;45345;-50
2022/06/13 00:29:37;;;;;;;;;2.75;2.75;;;;;23.48;42.51;101730.47;5071615;28;60019;-52
2022/06/13 00:32:03;;;;;;;;;4.00;2.00;;;;;23.46;42.78;101725.22;5068104;28;45494;-53
2022/06/13 00:34:28;;;;;;;;;2.00;2.00;;;;;23.46;42.84;101730.56;5071752;28;45501;-52
2022/06/13 00:36:54;;;;;;;;;2.00;2.00;;;;;23.45;42.42;101728.81;5065173;28;72155;-50
2022/06/13 00:39:19;;;;;;;;;3.00;1.00;;;;;23.44;42.46;101731.59;5073094;27;71333;-52
2022/06/13 00:41:45;;;;;;;;;3.50;2.00;;;;;23.44;42.58;101732.47;5070410;28;65976;-50
2022/06/13 00:44:22;;;;;;;;;3.50;1.25;;;;;23.43;42.33;101729.91;5069142;28;45576;-52
2022/06/13 00:46:48;;;;;;;;;1.00;1.00;;;;;23.41;42.49;101723.78;5073797;27;45509;-51
2022/06/13 00:49:17;;;;;;;;;2.00;2.00;;;;;23.42;42.89;101717.47;5077222;28;45757;-53
2022/06/13 00:51:49;;;;;;;;;2.25;2.25;;;;;23.40;42.84;101716.72;5072946;28;45507;-53
2022/06/13 00:54:16;;;;;;;;;4.25;3.00;;;;;23.41;42.60;101721.09;5066680;28;45336;-52
2022/06/13 00:56:42;;;;;;;;;5.00;4.00;;;;;23.40;42.60;101722.06;5064616;27;46294;-50
2022/06/13 00:59:13;;;;;;;;;4.50;3.00;;;;;23.39;42.30;101715.00;5054834;28;67076;-52
2022/06/13 01:01:38;;;;;;;;;4.00;2.00;;;;;23.36;42.99;101704.53;5074145;28;45556;-52
2022/06/13 01:04:05;;;;;;;;;5.25;3.00;;;;;23.38;42.43;101702.63;5066650;28;45576;-50
2022/06/13 01:06:35;;;;;;;;;3.00;2.50;;;;;23.35;42.62;101698.31;5063412;28;45550;-50
2022/06/13 01:09:03;;;;;;;;;2.00;2.00;;;;;23.35;42.61;101695.66;5070685;28;45398;-52
2022/06/13 01:11:28;;;;;;;;;3.75;2.00;;;;;23.34;42.61;101691.28;5071631;28;45381;-50
2022/06/13 01:14:09;;;;;;;;;6.00;3.25;;;;;23.34;42.30;101695.75;5064060;28;45349;-51
2022/06/13 01:17:11;;;;;;;;;3.25;3.25;;;;;23.34;42.94;101693.97;5065638;28;45609;-50
2022/06/13 01:20:14;;;;;;;;;3.25;3.25;;;;;23.33;42.84;101691.38;5076505;28;45277;-50
2022/06/13 01:23:13;;;;;;;;;4.25;4.25;;;;;23.32;42.87;101690.53;5065389;28;45471;-50
2022/06/13 01:25:59;;;;;;;;;3.00;3.00;;;;;23.31;42.62;101695.00;5054644;28;45600;-49
2022/06/13 01:28:39;;;;;;;;;3.00;2.50;;;;;23.30;42.30;101687.09;5068449;28;46436;-51
2022/06/13 01:31:05;;;;;;;;;6.25;2.25;;;;;23.29;42.68;101682.72;5066036;28;45511;-50
2022/06/13 01:33:56;;;;;;;;;7.00;3.00;;;;;23.29;42.92;101682.72;5076415;28;45254;-50
2022/06/13 01:36:30;;;;;;;;;5.75;3.50;;;;;23.29;42.35;101688.06;5066693;28;45465;-51
2022/06/13 01:39:43;;;;;;;;;4.00;3.00;;;;;23.27;42.82;101681.97;5068732;28;46908;-49
2022/06/13 01:42:32;;;;;;;;;3.75;3.75;;;;;23.28;42.80;101689.00;5061604;28;45187;-51
2022/06/13 01:45:42;;;;;;;;;2.75;2.00;;;;;23.26;42.76;101683.75;5081319;28;45402;-49
2022/06/13 01:48:31;;;;;;;;;3.00;3.00;;;;;23.27;42.29;101689.97;5046634;28;45453;-50
2022/06/13 01:51:27;;;;;;;;;4.00;2.25;;;;;23.24;42.64;101692.84;5065924;28;45427;-51
2022/06/13 01:54:20;;;;;;;;;7.75;3.25;;;;;23.26;42.65;101691.78;5071794;28;45462;-49
2022/06/13 01:57:23;;;;;;;;;5.25;3.50;;;;;23.25;42.63;101695.41;5078264;28;45323;-51
2022/06/13 02:00:07;;;;;;;;;3.25;2.75;;;;;23.24;42.20;101695.50;5056126;28;45536;-51
2022/06/13 02:02:38;;;;;;;;;3.75;3.75;;;;;23.23;42.25;101708.03;5076430;28;46164;-51
2022/06/13 02:05:24;;;;;;;;;3.75;3.00;;;;;23.23;42.37;101696.47;5065822;28;45522;-54
2022/06/13 02:07:56;;;;;;;;;3.75;2.25;;;;;23.22;42.69;101690.28;5075754;28;45412;-51
2022/06/13 02:10:26;;;;;;;;;3.75;2.25;;;;;23.22;42.21;101692.94;5059753;28;45628;-51
2022/06/13 02:12:55;;;;;;;;;6.00;4.50;;;;;23.21;42.33;101693.88;5055600;28;45360;-50
2022/06/13 02:15:25;;;;;;;;;4.25;3.75;;;;;23.21;42.70;101695.72;5062221;28;45328;-52
2022/06/13 02:17:56;;;;;;;;;7.25;4.25;;;;;23.21;42.26;101690.38;5055829;28;45398;-51
2022/06/13 02:20:28;;;;;;;;;4.75;4.75;;;;;23.21;42.35;101685.88;5048699;28;45439;-51
2022/06/13 02:22:57;;;;;;;;;4.25;2.00;;;;;23.21;42.73;101685.88;5060192;28;46159;-51
2022/06/13 02:25:31;;;;;;;;;3.50;3.50;;;;;23.20;42.14;101686.00;5072044;28;45257;-52
2022/06/13 02:27:58;;;;;;;;;3.00;3.00;;;;;23.21;42.65;101690.38;5076976;27;45260;-49
2022/06/13 02:30:29;;;;;;;;;3.00;3.00;;;;;23.19;42.51;101685.13;5054786;28;47076;-51
2022/06/13 02:33:08;;;;;;;;;3.00;3.00;;;;;23.20;42.62;101692.19;5060650;28;48752;-51
2022/06/13 02:35:39;;;;;;;;;3.00;3.00;;;;;23.19;42.47;101690.47;5064278;28;45340;-50
2022/06/13 02:38:19;;;;;;;;;2.00;2.00;;;;;23.18;42.13;101688.75;5047120;28;45541;-51
2022/06/13 02:40:49;;;;;;;;;4.50;3.00;;;;;23.18;42.59;101688.75;5061732;28;45367;-50
2022/06/13 02:43:20;;;;;;;;;4.00;4.00;;;;;23.18;42.48;101687.88;5052941;28;46956;-52
2022/06/13 02:45:53;;;;;;;;;4.25;3.75;;;;;23.16;42.59;101682.69;5078119;28;45333;-49
2022/06/13 02:48:40;;;;;;;;;6.50;3.50;;;;;23.17;42.30;101686.19;5067543;28;46557;-52
2022/06/13 02:51:15;;;;;;;;;4.00;3.75;;;;;23.16;42.08;101693.34;5048349;28;45591;-50
2022/06/13 02:54:01;;;;;;;;;4.50;2.75;;;;;23.16;42.19;101689.81;5068635;28;46049;-51
2022/06/13 02:56:33;;;;;;;;;6.25;3.50;;;;;23.14;42.78;101687.22;5055291;28;46986;-51
2022/06/13 02:59:23;;;;;;;;;5.75;4.75;;;;;23.14;42.44;101681.88;5074572;28;45335;-50
2022/06/13 03:01:49;;;;;;;;;5.50;4.00;;;;;23.06;42.49;101677.06;5056209;28;45580;-49
2022/06/13 03:04:35;;;;;;;;;4.25;3.25;;;;;23.13;42.80;101694.41;5071698;28;48441;-51
2022/06/13 03:07:15;;;;;;;;;7.25;4.00;;;;;23.09;42.58;101684.88;5056912;28;45437;-50
2022/06/13 03:09:47;;;;;;;;;3.25;3.00;;;;;23.11;42.47;101701.66;5049320;28;45508;-50
2022/06/13 03:12:20;;;;;;;;;4.50;3.25;;;;;23.12;42.54;101703.38;5073510;28;45294;-49
2022/06/13 03:14:56;;;;;;;;;5.00;5.00;;;;;23.11;42.46;101701.66;5059724;28;45533;-51
2022/06/13 03:17:37;;;;;;;;;5.00;5.00;;;;;23.11;42.63;101707.00;5067498;28;45261;-53
2022/06/13 03:20:14;;;;;;;;;4.75;4.75;;;;;23.10;42.23;101705.25;5048648;28;45796;-51
2022/06/13 03:22:51;;;;;;;;;6.25;4.50;;;;;23.09;42.18;101705.38;5057854;28;45971;-52
2022/06/13 03:25:28;;;;;;;;;4.00;4.00;;;;;23.10;42.62;101709.75;5053059;28;46553;-51
2022/06/13 03:28:08;;;;;;;;;5.50;3.50;;;;;23.09;42.23;101716.91;5051200;28;45722;-50
2022/06/13 03:30:37;;;;;;;;;4.00;3.00;;;;;23.08;42.28;101715.19;5065540;28;45426;-50
2022/06/13 03:36:01;;;;;;;;;8.75;4.00;;;;;23.07;42.89;101717.94;5047268;28;45823;-53
2022/06/13 03:38:33;;;;;;;;;4.25;4.00;;;;;23.06;42.79;101719.78;5045597;28;45423;-50
2022/06/13 03:41:00;;;;;;;;;7.25;4.25;;;;;23.03;42.54;101719.09;5060954;28;45427;-53
2022/06/13 03:43:49;;;;;;;;;3.00;3.00;;;;;;;;5043585;28;45408;-52
2022/06/13 03:46:40;;;;;;;;;5.50;3.25;;;;;23.05;42.79;101722.53;5061045;28;46169;-50
2022/06/13 03:49:14;;;;;;;;;5.50;3.75;;;;;23.03;42.33;101729.75;5072685;28;46453;-50
2022/06/13 03:51:47;;;;;;;;;7.00;4.00;;;;;23.01;42.65;101724.50;5036933;28;45614;-53
2022/06/13 03:54:16;;;;;;;;;5.00;4.00;;;;;23.02;42.37;101730.72;5051195;28;45289;-52
2022/06/13 03:56:52;;;;;;;;;3.50;2.25;;;;;23.01;42.50;101729.00;5062195;28;46681;-50
2022/06/13 03:59:22;;;;;;;;;3.00;3.00;;;;;22.98;42.74;101719.38;5047319;28;45505;-50
2022/06/13 04:01:53;;;;;;;;;5.00;4.00;;;;;23.00;42.51;101721.94;5055883;28;45470;-50
2022/06/13 04:04:21;;;;;;;;;5.25;3.25;;;;;22.99;42.65;101725.59;5059762;28;45537;-50
2022/06/13 04:06:47;;;;;;;;;3.00;3.00;;;;;22.98;42.60;101721.19;5052245;28;46170;-53
2022/06/13 04:09:14;;;;;;;;;6.00;4.50;;;;;22.99;42.46;101722.91;5070440;28;45815;-49
2022/06/13 04:11:48;;;;;;;;;6.00;4.00;;;;;22.99;42.39;101720.25;5073337;28;45456;-50
2022/06/13 04:14:40;;;;;;;;;5.25;4.00;;;;;22.98;42.70;101732.72;5056023;28;45495;-50
2022/06/13 04:17:16;;;;;;;;;5.50;3.00;;;;;22.98;42.78;101729.19;5059534;28;46182;-50
2022/06/13 04:19:59;;;;;;;;;4.00;3.00;;;;;22.97;42.22;101733.69;5079603;28;45383;-50
2022/06/13 04:22:49;;;;;;;;;4.00;2.50;;;;;22.97;42.29;101730.16;5053433;28;45469;-49
2022/06/13 04:25:24;;;;;;;;;4.00;4.00;;;;;22.95;42.70;101719.59;5061419;28;45414;-53
2022/06/13 04:27:59;;;;;;;;;6.25;3.00;;;;;22.94;42.86;101725.88;5057663;28;46392;-51
2022/06/13 04:30:28;;;;;;;;;4.50;2.50;;;;;22.93;42.64;101726.84;5067988;27;45772;-51
2022/06/13 04:32:53;;;;;;;;;4.75;2.75;;;;;22.92;42.81;101727.78;5059090;28;45523;-49
2022/06/13 04:35:19;;;;;;;;;3.33;3.00;;;;;22.91;42.75;101734.06;5068245;28;45636;-51
2022/06/13 04:37:45;;;;;;;;;3.75;2.00;;;;;22.87;42.68;101729.88;5054294;28;56458;-50
2022/06/13 04:40:19;;;;;;;;;4.75;3.00;;;;;22.90;42.82;101732.38;5059718;28;72226;-49
2022/06/13 04:42:45;;;;;;;;;2.00;2.00;;;;;22.89;42.73;101741.31;5070705;28;45580;-49
2022/06/13 04:45:19;;;;;;;;;5.25;4.00;;;;;22.85;42.63;101732.63;5054899;28;73168;-49
2022/06/13 04:47:45;;;;;;;;;5.50;3.00;;;;;22.87;42.78;101728.06;5078836;28;45355;-52
2022/06/13 04:50:17;;;;;;;;;5.75;3.25;;;;;22.87;42.31;101732.53;5061652;28;45842;-50
2022/06/13 04:52:44;;;;;;;;;6.00;3.75;;;;;22.87;42.42;101741.41;5067089;27;45553;-50
2022/06/13 04:55:19;;;;;;;;;3.00;2.00;;;;;22.87;42.53;101740.56;5064001;28;45607;-49
2022/06/13 04:57:44;;;;;;;;;5.00;3.00;;;;;22.86;42.48;101744.16;5075544;28;45366;-50
2022/06/13 05:00:10;;;;;;;;;4.50;2.00;;;;;22.87;42.90;101745.91;5061932;28;72918;-50
2022/06/13 05:02:40;;;;;;;;;4.25;4.00;;;;;22.86;43.06;101750.38;5062910;28;45229;-52
2022/06/13 05:05:19;;;;;;;;;4.00;2.75;;;;;22.86;42.80;101754.84;5058556;28;45506;-52
2022/06/13 05:07:46;;;;;;;;;4.50;3.00;;;;;22.87;43.08;101753.91;5074259;28;45358;-49
2022/06/13 05:10:14;;;;;;;;;6.00;2.00;;;;;22.87;42.40;101753.91;5073788;28;70314;-50
2022/06/13 05:12:42;;;;;;;;;5.00;2.75;;;;;22.86;42.53;101758.41;5062626;28;45305;-51
2022/06/13 05:15:11;;;;;;;;;2.00;1.75;;;;;22.85;42.79;101754.00;5069541;27;47077;-50
2022/06/13 05:18:02;;;;;;;;;2.50;2.50;;;;;22.88;42.52;101756.47;5064731;28;46284;-49
2022/06/13 05:20:27;;;;;;;;;4.25;3.25;;;;;22.87;42.76;101761.91;5075582;28;45697;-53
2022/06/13 05:23:05;;;;;;;;;5.67;4.33;;;;;22.87;43.02;101754.75;5070908;28;45554;-53
2022/06/13 05:25:38;;;;;;;;;2.00;2.00;;;;;22.88;42.51;101759.16;5048263;28;45471;-53
2022/06/13 05:28:03;;;;;;;;;3.75;3.00;;;;;22.86;42.94;101746.84;5055100;28;45545;-53
2022/06/13 05:30:29;;;;;;;;;3.00;3.00;;;;;22.89;42.86;101755.50;5062412;28;47152;-51
2022/06/13 05:32:56;;;;;;;;;3.50;3.00;;;;;22.88;42.54;101759.16;5067632;28;45257;-50
2022/06/13 05:35:25;;;;;;;;;4.00;2.50;;;;;22.89;42.75;101760.00;5065271;28;46011;-50
2022/06/13 05:37:52;;;;;;;;;3.50;2.75;;;;;22.89;43.04;101763.50;5063882;28;46084;-50
2022/06/13 05:40:20;;;;;;;;;6.00;2.75;;;;;22.87;43.14;101761.91;5075704;27;45604;-51
2022/06/13 05:42:46;;;;;;;;;3.00;3.00;;;;;22.92;42.99;101767.81;5070931;27;45239;-52
2022/06/13 05:45:22;;;;;;;;;5.00;3.00;;;;;22.94;42.86;101771.25;5072121;28;45465;-50
2022/06/13 05:47:48;;;;;;;;;3.00;2.50;;;;;22.96;42.32;101769.34;5070902;27;47058;-51
2022/06/13 05:50:20;;;;;;;;;4.75;4.50;;;;;22.99;42.42;101771.81;5087007;27;45698;-51
2022/06/13 05:52:45;;;;;;;;;6.25;4.25;;;;;22.98;42.29;101774.56;5065816;28;45415;-50
2022/06/13 05:55:11;;;;;;;;;8.00;4.75;;;;;23.02;41.97;101784.09;5075727;27;46311;-53
2022/06/13 05:57:38;;;;;;;;;7.00;5.25;;;;;23.03;41.60;101781.34;5068718;27;45287;-51
2022/06/13 06:00:06;;;;;;;;;5.00;4.50;;;;;23.06;42.51;101780.34;5064399;28;45737;-50
2022/06/13 06:02:31;;;;;;;;;9.25;4.00;;;;;23.06;41.89;101783.00;5064508;28;45367;-52
2022/06/13 06:04:56;;;;;;;;;10.50;4.00;;;;;23.06;41.72;101783.84;5072606;28;45450;-49
2022/06/13 06:07:22;;;;;;;;;6.25;3.50;;;;;23.05;41.63;101779.47;5070294;28;72896;-50
2022/06/13 06:09:47;;;;;;;;;6.75;4.00;;;;;23.06;40.96;101785.69;5069942;28;71588;-51
2022/06/13 06:12:12;;;;;;;;;6.50;4.00;;;;;23.03;41.47;101786.69;5058539;28;60606;-50
2022/06/13 06:14:38;;;;;;;;;7.00;5.00;;;;;23.03;40.90;101784.00;5061332;28;53311;-49
2022/06/13 06:17:03;;;;;;;;;7.75;5.00;;;;;23.02;41.41;101784.09;5067429;28;75861;-50
2022/06/13 06:19:29;;;;;;;;;8.00;4.75;;;;;23.01;41.13;101791.25;5066683;28;45346;-50
2022/06/13 06:21:55;;;;;;;;;6.25;5.00;;;;;23.01;41.26;101795.75;5067743;28;45382;-50
2022/06/13 06:24:20;;;;;;;;;10.00;4.25;;;;;23.01;41.48;101801.09;5069943;27;45426;-53
2022/06/13 06:26:45;;;;;;;;;9.75;5.25;;;;;23.00;41.00;101802.91;5084121;27;70170;-52
2022/06/13 06:29:11;;;;;;;;;6.75;4.00;;;;;22.97;41.44;101800.44;5065950;27;45256;-49
2022/06/13 06:31:36;;;;;;;;;4.75;4.00;;;;;23.00;41.45;101805.59;5074533;28;45528;-51
2022/06/13 06:34:02;;;;;;;;;5.75;3.75;;;;;23.01;41.50;101801.09;5066900;27;73114;-52
2022/06/13 06:36:27;;;;;;;;;5.25;4.50;;;;;22.99;41.39;101797.66;5068892;27;53737;-51
2022/06/13 06:38:53;;;;;;;;;6.75;5.00;;;;;23.03;41.07;101807.19;5064356;27;45442;-50
2022/06/13 06:41:18;;;;;;;;;7.50;5.00;;;;;23.01;41.21;101809.94;5078576;27;46073;-50
2022/06/13 06:43:43;;;;;;;;;9.50;5.25;;;;;23.01;42.07;101809.94;5067410;28;45547;-50
2022/06/13 06:46:09;;;;;;;;;8.75;5.00;;;;;22.94;41.17;101798.78;5075384;27;73067;-53
2022/06/13 06:48:36;;;;;;;;;5.00;4.00;;;;;23.02;40.88;101810.81;5077929;27;45322;-53
2022/06/13 06:51:05;;;;;;;;;5.50;5.25;;;;;23.02;41.43;101826.81;5071210;28;45474;-51
2022/06/13 06:59:53;;;;;;;;;5.50;4.00;;;;;23.01;41.31;101819.78;5069220;27;45486;-51
2022/06/13 07:01:43;;;;;;;;;9.50;5.25;;;;;23.03;43.45;101813.38;5071125;28;45421;-53
2022/06/13 07:04:09;;;;;;;;;10.50;5.00;;;;;23.03;43.51;101817.88;5077289;27;73078;-53
2022/06/13 07:06:34;;;;;;;;;4.50;4.00;;;;;23.02;43.38;101816.13;5066746;27;75713;-50
2022/06/13 07:08:59;;;;;;;;;5.25;4.00;;;;;23.01;44.00;101819.78;5061515;27;72394;-50
2022/06/13 07:14:09;;;;;;;;;7.00;5.50;;;;;22.99;44.06;101822.53;5087632;27;45381;-50
2022/06/13 07:16:35;;;;;;;;;10.50;4.75;;;;;23.01;44.06;101833.13;5086613;27;45486;-50
2022/06/13 07:19:00;;;;;;;;;5.75;2.50;;;;;23.01;43.55;101822.44;5067558;27;45363;-49
2022/06/13 07:21:25;;;;;;;;;5.50;3.00;;;;;23.01;43.51;101817.97;5068240;28;66954;-49
2022/06/13 07:23:50;;;;;;;;;5.00;3.00;;;;;23.03;43.81;101823.22;5061563;27;45517;-51
2022/06/13 07:26:16;;;;;;;;;10.50;4.00;;;;;23.02;43.45;101818.81;5063343;28;75512;-53
2022/06/13 07:28:41;;;;;;;;;6.50;4.50;;;;;23.02;43.68;101827.69;5065527;27;57181;-51
2022/06/13 07:31:11;;;;;;;;;6.00;5.00;;;;;23.03;43.46;101826.72;5071489;27;69430;-49
2022/06/13 07:33:36;;;;;;;;;5.50;4.50;;;;;;;;5072614;27;45317;-50
2022/06/13 07:36:01;;;;;;;;;2.00;2.00;;;;;23.05;43.63;101824.84;5070085;28;46901;-52
2022/06/13 07:38:26;;;;;;;;;7.50;4.25;;;;;23.05;43.72;101829.34;5064145;28;64750;-51
2022/06/13 07:40:57;;;;;;;;;5.50;3.00;;;;;23.06;43.69;101823.91;5073215;27;66392;-50
2022/06/13 07:43:30;;;;;;;;;6.00;4.00;;;;;23.06;43.87;101829.25;5069825;27;46787;-52
2022/06/13 07:45:57;;;;;;;;;3.00;3.00;;;;;23.06;43.79;101821.25;5085593;27;45450;-50
2022/06/13 07:48:23;;;;;;;;;6.00;3.25;;;;;23.07;43.40;101830.97;5076078;28;45449;-52
2022/06/13 07:50:48;;;;;;;;;6.00;3.25;;;;;23.09;43.95;101831.72;5068754;27;45408;-49
2022/06/13 07:53:14;;;;;;;;;4.75;4.00;;;;;23.09;43.52;101829.06;5070802;27;45394;-51
2022/06/13 07:55:39;;;;;;;;;3.50;3.00;;;;;23.09;44.06;101826.41;5070678;27;60028;-53
2022/06/13 07:58:07;;;;;;;;;2.00;2.00;;;;;23.10;43.86;101825.41;5066957;27;45468;-49
2022/06/13 08:00:34;;;;;;;;;6.50;3.50;;;;;23.08;43.87;101832.66;5064268;28;45479;-51
2022/06/13 08:03:01;;;;;;;;;3.00;2.75;;;;;23.12;43.67;101833.34;5077167;27;45489;-50
2022/06/13 08:05:30;;;;;;;;;3.50;3.00;;;;;23.12;43.44;101836.88;5061615;28;45341;-53
2022/06/13 08:07:55;;;;;;;;;3.25;3.25;;;;;23.12;43.61;101842.22;5072417;28;45380;-52
2022/06/13 08:10:21;;;;;;;;;4.75;2.75;;;;;23.14;43.49;101836.75;5068114;28;59896;-53
2022/06/13 08:12:46;;;;;;;;;7.25;4.00;;;;;23.16;43.37;101837.56;5059974;28;45418;-50
2022/06/13 08:15:13;;;;;;;;;5.25;4.00;;;;;23.17;44.01;101839.25;5064662;28;45851;-51
2022/06/13 08:17:38;;;;;;;;;7.00;3.25;;;;;23.18;43.96;101843.66;5060080;28;45448;-50
2022/06/13 08:20:04;;;;;;;;;4.75;3.25;;;;;23.18;43.54;101835.63;5061637;28;45678;-50
2022/06/13 08:22:30;;;;;;;;;12.00;3.25;;;;;23.17;43.50;101833.06;5061541;28;45430;-52
2022/06/13 08:24:55;;;;;;;;;3.25;3.25;;;;;23.20;43.65;101835.56;5068902;28;45989;-51
2022/06/13 08:27:20;;;;;;;;;6.50;3.75;;;;;23.20;43.38;101841.75;5068091;28;45545;-49
2022/06/13 08:29:46;;;;;;;;;8.75;3.75;;;;;23.22;43.70;101841.66;5066854;28;47102;-50
2022/06/13 08:32:12;;;;;;;;;5.25;3.75;;;;;23.22;43.57;101841.66;5064452;28;45216;-50
2022/06/13 08:34:38;;;;;;;;;6.00;4.50;;;;;23.22;43.45;101845.16;5067023;28;47380;-52
2022/06/13 08:37:04;;;;;;;;;7.50;3.00;;;;;23.24;43.43;101839.72;5063849;28;45449;-50
2022/06/13 08:39:29;;;;;;;;;4.00;2.50;;;;;23.23;43.76;101848.69;5070214;28;45620;-51
2022/06/13 08:42:19;;;;;;;;;6.00;3.50;;;;;23.24;43.76;101840.59;5081003;27;63374;-50
2022/06/13 08:44:57;;;;;;;;;3.00;3.00;;;;;23.25;43.09;101841.47;5072936;28;45522;-50
2022/06/13 08:48:00;;;;;;;;;6.00;2.00;;;;;23.26;43.20;101835.16;5059150;28;45389;-50
2022/06/13 08:50:44;;;;;;;;;3.75;3.00;;;;;23.26;43.42;101837.81;5030608;28;45515;-51
2022/06/13 08:53:22;;;;;;;;;4.25;2.75;;;;;23.27;43.65;101842.22;5061916;28;45534;-50
2022/06/13 08:55:50;;;;;;;;;5.75;2.75;;;;;23.27;43.08;101836.88;5076269;27;46385;-51
2022/06/13 08:58:37;;;;;;;;;8.00;2.00;;;;;23.27;43.27;101835.06;5085056;27;45374;-50
2022/06/13 09:01:28;;;;;;;;;3.00;3.00;;;;;23.28;43.09;101834.13;5067198;28;45410;-50
2022/06/13 09:04:09;;;;;;;;;4.00;3.00;;;;;23.29;43.33;101842.97;5066296;27;45502;-50
2022/06/13 09:06:39;;;;;;;;;4.50;2.00;;;;;23.30;42.97;101834.88;5074179;28;46211;-49
2022/06/13 09:09:10;;;;;;;;;2.50;2.50;;;;;23.32;43.03;101837.44;5069287;28;46173;-50
2022/06/13 09:12:09;;;;;;;;;6.25;3.75;;;;;23.32;42.87;101837.44;5067963;28;45502;-50
2022/06/13 09:14:43;;;;;;;;;3.50;2.00;;;;;23.33;42.84;101839.16;5073729;27;45367;-52
2022/06/13 09:17:20;;;;;;;;;4.50;2.00;;;;;23.35;43.05;101834.56;5080289;27;45371;-50
2022/06/13 09:20:03;;;;;;;;;4.25;2.00;;;;;23.34;43.10;101843.53;5078467;28;45398;-50
2022/06/13 09:22:36;;;;;;;;;4.75;2.75;;;;;23.39;43.13;101840.56;5066399;28;45546;-51
2022/06/13 09:25:19;;;;;;;;;4.00;1.50;;;;;23.39;42.85;101841.44;5068126;28;45502;-50
2022/06/13 09:28:09;;;;;;;;;3.00;2.00;;;;;23.41;42.67;101849.34;5067572;28;45378;-50
2022/06/13 09:30:38;;;;;;;;;4.25;3.00;;;;;23.36;42.82;101836.28;5056706;28;45462;-50
2022/06/13 09:33:25;;;;;;;;;2.75;2.75;;;;;23.43;42.82;101842.94;5085158;27;45272;-49
2022/06/13 09:35:59;;;;;;;;;2.50;2.25;;;;;23.46;42.82;101845.44;5066948;28;45530;-49
2022/06/13 09:38:52;;;;;;;;;4.25;4.25;;;;;23.50;42.66;101846.94;5063688;28;45716;-50
2022/06/13 09:41:36;;;;;;;;;5.50;3.00;;;;;23.54;43.09;101833.41;5060901;28;45395;-50
2022/06/13 09:44:13;;;;;;;;;2.75;2.25;;;;;23.57;42.88;101827.84;5067964;28;45504;-51
2022/06/13 09:46:53;;;;;;;;;4.00;2.50;;;;;23.59;42.47;101836.63;5061438;28;45359;-51
2022/06/13 09:49:25;;;;;;;;;6.25;2.00;;;;;23.61;42.76;101843.59;5062309;28;46559;-49
2022/06/13 09:52:13;;;;;;;;;4.75;3.75;;;;;23.64;42.72;101845.22;5073258;27;45581;-50
2022/06/13 09:54:42;;;;;;;;;4.50;2.25;;;;;23.68;42.77;101836.03;5076119;28;45500;-53
2022/06/13 09:57:20;;;;;;;;;3.00;2.25;;;;;23.73;42.14;101843.72;5063660;28;45520;-49
2022/06/13 10:00:01;;;;;;;;;4.00;3.00;;;;;23.77;42.36;101845.28;5065710;28;45595;-52
2022/06/13 10:02:49;;;;;;;;;3.00;3.00;;;;;23.82;42.38;101838.69;5062869;28;45980;-49
2022/06/13 10:05:32;;;;;;;;;7.00;2.00;;;;;23.89;42.18;101839.16;5071594;28;45275;-51
2022/06/13 10:08:22;;;;;;;;;3.00;3.00;;;;;23.93;41.97;101832.63;5065773;28;45715;-52
2022/06/13 10:11:08;;;;;;;;;3.00;3.00;;;;;23.98;42.22;101832.34;5086104;27;45447;-51
2022/06/13 10:13:39;;;;;;;;;3.00;3.00;;;;;24.03;42.00;101831.06;5077628;27;45915;-52
2022/06/13 10:16:19;;;;;;;;;4.00;2.75;;;;;24.07;41.89;101831.72;5061891;28;45425;-51
2022/06/13 10:19:01;;;;;;;;;2.75;2.25;;;;;24.12;41.99;101840.31;5064478;28;45508;-49
2022/06/13 10:21:51;;;;;;;;;5.75;4.00;;;;;24.17;41.90;101834.63;5069783;27;45534;-49
2022/06/13 10:24:23;;;;;;;;;4.25;3.50;;;;;24.21;41.79;101834.31;5092832;27;45355;-54
2022/06/13 10:27:16;;;;;;;;;2.00;2.00;;;;;24.26;41.58;101829.53;5070042;27;45469;-52
2022/06/13 10:29:44;;;;;;;;;1.50;1.50;;;;;24.31;42.05;101839.03;5070610;27;45591;-53
2022/06/13 10:32:19;;;;;;;;;3.75;2.50;;;;;24.35;41.95;101830.72;5072878;27;46140;-54
2022/06/13 10:34:56;;;;;;;;;6.50;2.50;;;;;24.41;42.46;101838.31;5073185;28;46069;-54
2022/06/13 10:37:50;;;;;;;;;3.50;2.50;;;;;24.45;42.62;101830.94;5073192;27;45604;-54
2022/06/13 10:40:16;;;;;;;;;2.00;2.00;;;;;24.50;42.48;101831.47;5068970;28;45476;-54
2022/06/13 10:42:42;;;;;;;;;3.25;2.00;;;;;24.55;42.80;101826.72;5070229;28;45398;-53
2022/06/13 10:45:13;;;;;;;;;3.00;3.00;;;;;24.60;42.83;101826.41;5066601;28;45701;-53
2022/06/13 10:48:02;;;;;;;;;1.00;1.00;;;;;24.63;42.86;101819.00;5066555;28;45642;-52
2022/06/13 10:50:40;;;;;;;;;2.50;1.25;;;;;24.71;42.84;101831.00;5068715;28;46519;-54
2022/06/13 10:53:16;;;;;;;;;2.00;1.50;;;;;24.74;42.53;101826.28;5069296;28;46061;-53
2022/06/13 10:55:42;;;;;;;;;5.00;1.75;;;;;24.75;42.20;101832.50;5086086;27;45707;-54
2022/06/13 10:58:20;;;;;;;;;1.50;1.50;;;;;24.76;42.44;101828.88;5075996;28;45469;-54
2022/06/13 11:01:16;;;;;;;;;3.75;2.00;;;;;24.78;42.34;101819.75;5073420;28;45442;-53
2022/06/13 11:03:58;;;;;;;;;2.00;2.00;;;;;24.79;42.06;101821.47;5058320;28;45462;-54
2022/06/13 11:06:31;;;;;;;;;1.00;0.25;;;;;24.81;42.22;101826.72;5074162;28;45541;-54
2022/06/13 11:08:58;;;;;;;;;2.50;2.00;;;;;24.87;42.09;101820.09;5080112;27;45497;-53
2022/06/13 11:11:37;;;;;;;;;2.50;1.00;;;;;24.90;42.24;101811.84;5062453;27;45512;-54
2022/06/13 11:14:02;;;;;;;;;1.50;1.00;;;;;24.94;42.03;101811.50;5088411;27;46327;-54
2022/06/13 11:22:38;;;;;;;;;2.75;1.00;;;;;25.00;41.95;101821.78;5073057;28;45861;-54
2022/06/13 11:25:12;;;;;;;;;5.00;1.00;;;;;25.04;41.82;101824.22;5070298;28;45469;-51
2022/06/13 11:27:40;;;;;;;;;3.50;1.00;;;;;25.05;41.69;101823.28;5067336;28;45323;-53
2022/06/13 11:30:27;;;;;;;;;1.00;1.00;;;;;25.04;41.66;101817.06;5073935;28;45534;-53
2022/06/13 11:33:31;;;;;;;;;2.00;1.00;;;;;25.08;41.69;101821.22;5060751;28;45522;-54
2022/06/13 11:36:00;;;;;;;;;0.00;0.00;;;;;25.11;41.58;101818.34;5060656;28;45448;-54
2022/06/13 11:38:33;;;;;;;;;1.00;1.00;;;;;25.12;41.50;101821.88;5077476;27;45813;-54
2022/06/13 11:41:04;;;;;;;;;0.50;0.00;;;;;25.09;41.25;101817.59;5068323;28;45443;-53
2022/06/13 11:44:10;;;;;;;;;0.50;0.00;;;;;25.14;41.48;101814.56;5065403;28;45437;-54
2022/06/13 11:46:54;;;;;;;;;1.50;0.00;;;;;25.17;41.51;101803.66;5063209;28;46189;-52
2022/06/13 11:49:25;;;;;;;;;0.00;0.00;;;;;25.17;41.36;101806.31;5067296;28;45709;-51
2022/06/13 11:52:05;;;;;;;;;1.00;0.75;;;;;25.18;41.22;101802.69;5061170;27;45504;-54
2022/06/13 11:54:51;;;;;;;;;0.00;0.00;;;;;25.21;41.29;101805.13;5080881;27;45370;-51
2022/06/13 11:57:26;;;;;;;;;0.00;0.00;;;;;25.19;41.10;101802.56;5064636;28;47153;-57
2022/06/13 12:00:14;;;;;;;;;0.00;0.00;;;;;25.17;40.93;101799.13;5071419;27;45283;-51
2022/06/13 12:02:39;;;;;;;;;0.00;0.00;;;;;25.21;41.37;101807.81;5045970;28;45507;-54
2022/06/13 12:05:14;;;;;;;;;0.00;0.00;;;;;25.20;41.51;101792.72;5067053;28;45373;-54
2022/06/13 12:07:50;;;;;;;;;0.00;0.00;;;;;25.20;41.43;101793.56;5070645;28;46347;-53
2022/06/13 12:10:25;;;;;;;;;1.00;0.00;;;;;25.20;41.40;101784.69;5061269;28;45496;-53
2022/06/13 12:12:51;;;;;;;;;0.00;0.00;;;;;25.19;41.13;101797.19;5063991;28;45304;-54